Time;durP1;ratioP1;P1;durP2;ratioP2;P2;SDS_P1;SDS_P2;PMS_P1;PMS_P2;Temp;Humidity;BMP_temperature;BMP_pressure;BME280_temperature;BME280_humidity;BME280_pressure;Samples;Min_cycle;Max_cycle;Signal;HPM_P1;HPM_P2
2023/09/29 00:03:56;;;;;;;8.45;7.07;;;;;;;-144.32;100.00;68061.97;10211543;28;20043;-79
2023/09/29 00:09:01;;;;;;;7.63;6.85;;;;;;;-144.32;100.00;68061.97;10206990;29;20054;-81
2023/09/29 00:14:03;;;;;;;8.05;7.05;;;;;;;-144.32;100.00;68061.97;10204642;29;20043;-81
2023/09/29 00:19:04;;;;;;;9.33;7.47;;;;;;;-144.32;100.00;68061.97;10152244;28;20091;-80
2023/09/29 00:24:05;;;;;;;9.82;7.00;;;;;;;-144.32;100.00;68061.97;10211640;29;20083;-81
2023/09/29 00:29:07;;;;;;;9.10;7.60;;;;;;;-144.32;100.00;68061.97;10204709;29;20060;-81
2023/09/29 00:34:08;;;;;;;12.30;8.15;;;;;;;-144.32;100.00;68061.97;10205050;29;20052;-80
2023/09/29 00:39:13;;;;;;;8.32;7.25;;;;;;;-144.32;100.00;68061.97;10187364;29;20075;-80
2023/09/29 00:44:14;;;;;;;9.13;7.65;;;;;;;-144.32;100.00;68061.97;10204394;28;20467;-80
2023/09/29 00:49:18;;;;;;;9.40;7.65;;;;;;;-144.32;100.00;68061.97;10204273;29;20083;-79
2023/09/29 00:54:19;;;;;;;10.88;8.77;;;;;;;-144.32;100.00;68061.97;10208821;29;20039;-76
2023/09/29 00:59:19;;;;;;;10.68;9.57;;;;;;;-144.32;100.00;68061.97;10190835;28;20075;-79
2023/09/29 01:04:21;;;;;;;9.77;7.68;;;;;;;-144.32;100.00;68061.97;10191541;29;20047;-79
2023/09/29 01:09:21;;;;;;;9.38;7.38;;;;;;;-144.32;100.00;68061.97;10209076;28;20106;-78
2023/09/29 01:14:22;;;;;;;8.27;7.22;;;;;;;-144.32;100.00;68061.97;10205558;28;20513;-79
2023/09/29 01:19:25;;;;;;;8.82;7.68;;;;;;;-144.32;100.00;68061.97;10209927;28;20056;-79
2023/09/29 01:24:26;;;;;;;10.75;8.07;;;;;;;-144.32;100.00;68061.97;10208847;29;20102;-80
2023/09/29 01:29:26;;;;;;;11.30;8.27;;;;;;;-144.32;100.00;68061.97;10208686;29;20129;-81
2023/09/29 01:34:31;;;;;;;9.88;8.10;;;;;;;-144.32;100.00;68061.97;10220780;29;20051;-78
2023/09/29 01:39:31;;;;;;;11.18;8.27;;;;;;;-144.32;100.00;68061.97;10214202;29;20052;-78
2023/09/29 01:44:32;;;;;;;10.85;8.05;;;;;;;-144.32;100.00;68061.97;10222121;28;20043;-79
2023/09/29 01:49:34;;;;;;;10.32;8.27;;;;;;;-144.32;100.00;68061.97;10203062;29;20568;-79
2023/09/29 01:54:35;;;;;;;10.40;7.97;;;;;;;-144.32;100.00;68061.97;10199092;29;20050;-79
2023/09/29 01:59:38;;;;;;;10.88;8.77;;;;;;;-144.32;100.00;68061.97;10215452;29;20115;-79
2023/09/29 02:04:39;;;;;;;11.77;7.87;;;;;;;-144.32;100.00;68061.97;10193009;29;20052;-79
2023/09/29 02:09:42;;;;;;;10.38;7.97;;;;;;;-144.32;100.00;68061.97;10195822;29;20046;-80
2023/09/29 02:14:42;;;;;;;10.47;7.87;;;;;;;-144.32;100.00;68061.97;10214495;29;20048;-80
2023/09/29 02:19:43;;;;;;;8.23;7.10;;;;;;;-144.32;100.00;68061.97;10224322;28;20054;-80
2023/09/29 02:24:44;;;;;;;11.30;8.70;;;;;;;-144.32;100.00;68061.97;10213756;29;20047;-81
2023/09/29 02:29:45;;;;;;;11.38;8.88;;;;;;;-144.32;100.00;68062.25;10207805;29;20043;-81
2023/09/29 02:34:45;;;;;;;12.00;8.88;;;;;;;-144.32;100.00;68061.97;10205256;29;20047;-81
2023/09/29 02:39:46;;;;;;;9.27;8.10;;;;;;;-144.32;100.00;68061.97;10215796;28;20136;-80
2023/09/29 02:44:46;;;;;;;10.63;8.65;;;;;;;-144.32;100.00;68061.97;10195591;28;20057;-80
2023/09/29 02:49:47;;;;;;;9.50;8.43;;;;;;;-144.32;100.00;68061.97;10201470;29;20870;-79
2023/09/29 02:54:49;;;;;;;10.13;8.32;;;;;;;-144.32;100.00;68061.97;10202842;29;20821;-80
2023/09/29 02:59:54;;;;;;;12.57;8.73;;;;;;;-144.32;100.00;68061.97;10205126;28;20067;-81
2023/09/29 03:04:55;;;;;;;11.03;8.63;;;;;;;-144.32;100.00;68061.97;10212074;28;20094;-82
2023/09/29 03:09:55;;;;;;;9.50;7.97;;;;;;;-144.32;100.00;68061.97;10199716;29;20106;-80
2023/09/29 03:14:57;;;;;;;11.43;9.15;;;;;;;-144.32;100.00;68061.97;10212673;29;20078;-79
2023/09/29 03:19:59;;;;;;;10.45;8.73;;;;;;;-144.32;100.00;68061.97;10205487;28;20816;-81
2023/09/29 03:24:59;;;;;;;12.83;8.70;;;;;;;-144.32;100.00;68061.97;10216644;28;20046;-79
2023/09/29 03:30:07;;;;;;;11.52;8.70;;;;;;;-144.32;100.00;68061.97;10211027;28;20162;-81
2023/09/29 03:35:10;;;;;;;9.80;8.20;;;;;;;-144.32;100.00;68061.97;10205873;29;20139;-80
2023/09/29 03:40:13;;;;;;;12.55;9.02;;;;;;;-144.32;100.00;68061.97;10206538;28;20094;-79
2023/09/29 03:45:15;;;;;;;9.70;8.45;;;;;;;-144.32;100.00;68061.97;10204658;29;20046;-78
2023/09/29 03:50:16;;;;;;;10.47;9.00;;;;;;;-144.32;100.00;68061.97;10207221;29;20773;-78
2023/09/29 03:55:17;;;;;;;11.73;9.25;;;;;;;-144.32;100.00;68061.97;10217334;29;20079;-80
2023/09/29 04:00:18;;;;;;;12.35;9.60;;;;;;;-144.32;100.00;68061.97;10217587;28;20052;-80
2023/09/29 04:05:19;;;;;;;12.25;10.27;;;;;;;-144.32;100.00;68061.97;10204321;29;20448;-80
2023/09/29 04:10:23;;;;;;;12.63;9.70;;;;;;;-144.32;100.00;68061.97;10233166;29;20044;-80
2023/09/29 04:15:25;;;;;;;11.65;9.05;;;;;;;-144.32;100.00;68061.97;10209144;28;20967;-83
2023/09/29 04:20:27;;;;;;;10.80;9.13;;;;;;;-144.32;100.00;68061.97;10212724;29;20596;-83
2023/09/29 04:25:28;;;;;;;12.52;9.55;;;;;;;-144.32;100.00;68061.97;10198598;28;20039;-80
2023/09/29 04:30:28;;;;;;;13.10;10.93;;;;;;;-144.32;100.00;68061.97;10212363;29;20066;-79
2023/09/29 04:35:34;;;;;;;12.70;10.13;;;;;;;-144.32;100.00;68061.97;10244752;29;20040;-81
2023/09/29 04:40:37;;;;;;;14.90;10.68;;;;;;;-144.32;100.00;68061.97;10223973;28;20056;-80
2023/09/29 04:45:38;;;;;;;10.45;9.27;;;;;;;-144.32;100.00;68061.97;10202023;29;20039;-79
2023/09/29 04:50:38;;;;;;;12.48;9.60;;;;;;;-144.32;100.00;68061.97;10201355;29;20043;-78
2023/09/29 04:55:40;;;;;;;11.38;9.48;;;;;;;-144.32;100.00;68061.97;10205248;29;20051;-77
2023/09/29 05:00:40;;;;;;;14.10;9.95;;;;;;;-144.32;100.00;68061.97;10185923;29;20055;-79
2023/09/29 05:05:42;;;;;;;13.43;10.18;;;;;;;-144.32;100.00;68061.97;10198989;29;20043;-80
2023/09/29 05:10:43;;;;;;;13.63;10.02;;;;;;;-144.32;100.00;68061.97;10205927;29;20149;-78
2023/09/29 05:15:44;;;;;;;14.25;10.45;;;;;;;-144.32;100.00;68061.97;10184538;28;20184;-78
2023/09/29 05:20:44;;;;;;;12.15;10.13;;;;;;;-144.32;100.00;68061.97;10206656;28;20047;-76
2023/09/29 05:25:51;;;;;;;14.02;10.68;;;;;;;-144.32;100.00;68061.97;10187836;29;20047;-79
2023/09/29 05:30:57;;;;;;;14.02;11.77;;;;;;;-144.32;100.00;68061.97;10168619;29;20063;-79
2023/09/29 05:36:06;;;;;;;12.82;10.60;;;;;;;-144.32;100.00;68061.97;10184575;29;20055;-79
2023/09/29 05:41:10;;;;;;;13.38;10.52;;;;;;;-144.32;100.00;68061.97;10166934;29;20051;-76
2023/09/29 05:46:11;;;;;;;16.00;12.40;;;;;;;-144.32;100.00;68061.97;10193165;28;20054;-78
2023/09/29 05:51:12;;;;;;;12.93;10.75;;;;;;;-144.32;100.00;68061.97;10219453;29;20043;-77
2023/09/29 05:56:13;;;;;;;13.50;9.93;;;;;;;-144.32;100.00;68061.97;10196701;28;20086;-75
2023/09/29 06:01:15;;;;;;;13.50;11.25;;;;;;;-144.32;100.00;68061.97;10201560;28;20047;-76
2023/09/29 06:06:16;;;;;;;13.90;11.03;;;;;;;-144.32;100.00;68061.97;10222800;28;20074;-76
2023/09/29 06:11:17;;;;;;;15.90;12.45;;;;;;;-144.32;100.00;68061.97;10206274;28;20050;-83
2023/09/29 06:16:18;;;;;;;17.23;12.35;;;;;;;-144.32;100.00;68061.97;10195298;29;20075;-77
2023/09/29 06:21:20;;;;;;;15.25;12.30;;;;;;;-144.32;100.00;68061.97;10176801;29;20054;-78
2023/09/29 06:26:21;;;;;;;17.83;13.02;;;;;;;-144.32;100.00;68061.97;10220873;29;20047;-77
2023/09/29 06:31:22;;;;;;;16.70;13.68;;;;;;;-144.32;100.00;68061.97;10208216;29;20047;-77
2023/09/29 06:36:23;;;;;;;15.05;12.85;;;;;;;-144.32;100.00;68061.97;10204845;29;20539;-82
2023/09/29 06:41:23;;;;;;;15.43;12.23;;;;;;;-144.32;100.00;68061.97;10222471;29;20206;-77
2023/09/29 06:46:24;;;;;;;15.23;12.38;;;;;;;-144.32;100.00;68061.97;10213080;29;20051;-81
2023/09/29 06:51:27;;;;;;;13.57;11.35;;;;;;;-144.32;100.00;68061.97;10198892;29;20043;-81
2023/09/29 06:56:31;;;;;;;14.60;11.48;;;;;;;-144.32;100.00;68061.97;10219583;28;20058;-79
2023/09/29 07:01:32;;;;;;;16.80;13.02;;;;;;;-144.32;100.00;68061.97;10231686;28;20044;-79
2023/09/29 07:06:34;;;;;;;16.55;12.73;;;;;;;-144.32;100.00;68061.97;10231295;28;20059;-80
2023/09/29 07:11:35;;;;;;;14.80;11.50;;;;;;;-144.32;100.00;68061.97;10183660;28;20049;-81
2023/09/29 07:16:38;;;;;;;15.85;12.63;;;;;;;-144.32;100.00;68061.97;10201078;29;20644;-80
2023/09/29 07:21:40;;;;;;;15.73;13.15;;;;;;;-144.32;100.00;68061.97;10233916;28;20058;-79
2023/09/29 07:26:40;;;;;;;17.52;13.02;;;;;;;-144.32;100.00;68061.97;10233948;28;20411;-80
2023/09/29 07:31:47;;;;;;;16.02;12.52;;;;;;;-144.32;100.00;68061.97;10212004;28;20074;-80
2023/09/29 07:36:48;;;;;;;17.38;13.65;;;;;;;-144.32;100.00;68061.97;10233572;28;20055;-82
2023/09/29 07:41:50;;;;;;;15.43;11.85;;;;;;;-144.32;100.00;68061.97;10215926;29;20129;-82
2023/09/29 07:46:53;;;;;;;15.60;11.90;;;;;;;-144.32;100.00;68061.97;10200519;29;20487;-82
2023/09/29 07:51:53;;;;;;;17.00;12.95;;;;;;;-144.32;100.00;68061.97;10186161;28;20063;-81
2023/09/29 07:56:55;;;;;;;13.13;11.73;;;;;;;-144.32;100.00;68061.97;10230998;28;20058;-81
2023/09/29 08:01:58;;;;;;;16.60;11.40;;;;;;;-144.32;100.00;68061.97;10217382;29;20138;-81
2023/09/29 08:06:59;;;;;;;;;;;;;;;-144.32;100.00;68061.97;10208437;29;20507;-79
2023/09/29 08:12:00;;;;;;;14.00;10.48;;;;;;;-144.32;100.00;68061.97;10211871;28;19930;-81
2023/09/29 08:17:02;;;;;;;14.60;11.30;;;;;;;-144.32;100.00;68061.97;10213336;29;20055;-82
2023/09/29 08:22:02;;;;;;;13.23;10.20;;;;;;;-144.32;100.00;68061.97;10258280;28;20028;-80
2023/09/29 08:27:04;;;;;;;12.85;9.90;;;;;;;-144.32;100.00;68061.97;10213423;29;20059;-81
2023/09/29 08:32:05;;;;;;;11.57;8.70;;;;;;;-144.32;100.00;68061.97;10217305;29;20035;-81
2023/09/29 08:37:05;;;;;;;12.80;9.30;;;;;;;-144.32;100.00;68061.97;10220916;28;20044;-81
2023/09/29 08:42:17;;;;;;;9.50;7.97;;;;;;;-144.32;100.00;68061.97;10206996;28;20130;-80
2023/09/29 08:47:23;;;;;;;8.63;7.10;;;;;;;-144.32;100.00;68061.97;10212754;29;20062;-80
2023/09/29 08:52:30;;;;;;;10.05;6.78;;;;;;;-144.32;100.00;68061.97;10210901;29;20044;-78
2023/09/29 08:57:32;;;;;;;8.20;6.75;;;;;;;-144.32;100.00;68061.97;10222445;29;20050;-81
2023/09/29 09:02:34;;;;;;;8.85;7.32;;;;;;;-144.32;100.00;68061.97;10240717;28;20047;-84
2023/09/29 09:07:38;;;;;;;9.00;7.10;;;;;;;-144.32;100.00;68061.97;10232170;28;20059;-83
2023/09/29 09:12:43;;;;;;;;;;;;;;;-144.32;100.00;68061.97;10248312;28;20115;-81
2023/09/29 09:17:45;;;;;;;8.25;6.95;;;;;;;-144.32;100.00;68061.97;10268201;28;19938;-84
2023/09/29 09:23:03;;;;;;;8.45;6.18;;;;;;;-144.32;100.00;68061.97;10239927;28;20122;-83
2023/09/29 09:28:04;;;;;;;8.15;6.22;;;;;;;-144.32;100.00;68061.97;10254832;29;20047;-83
2023/09/29 09:33:05;;;;;;;9.05;6.65;;;;;;;-144.32;100.00;68061.97;10237553;29;20312;-82
2023/09/29 09:38:07;;;;;;;7.78;5.95;;;;;;;-144.32;100.00;68061.97;10251027;29;20048;-83
2023/09/29 09:43:10;;;;;;;7.28;5.80;;;;;;;-144.32;100.00;68061.97;10214840;29;20050;-86
2023/09/29 09:48:15;;;;;;;6.93;5.27;;;;;;;-144.32;100.00;68061.97;10239432;28;20126;-84
2023/09/29 09:53:18;;;;;;;7.70;4.82;;;;;;;-144.32;100.00;68061.97;10236634;29;20733;-82
2023/09/29 09:58:22;;;;;;;5.55;4.80;;;;;;;-144.32;100.00;68061.97;10236991;29;20080;-85
2023/09/29 10:03:26;;;;;;;7.05;5.95;;;;;;;-144.32;100.00;68061.97;10227722;29;20058;-84
2023/09/29 10:08:30;;;;;;;9.25;6.50;;;;;;;-144.32;100.00;68061.97;10220309;28;20491;-86
2023/09/29 10:13:35;;;;;;;8.88;5.20;;;;;;;-144.32;100.00;68061.97;10238753;28;20019;-82
2023/09/29 10:18:36;;;;;;;8.15;5.07;;;;;;;-144.32;100.00;68061.97;10227879;29;20079;-87
2023/09/29 10:23:48;;;;;;;6.00;4.80;;;;;;;-144.32;100.00;68061.97;10238217;28;20134;-83
2023/09/29 10:29:00;;;;;;;7.17;5.50;;;;;;;-144.32;100.00;68061.97;10262689;28;20047;-83
2023/09/29 10:34:34;;;;;;;6.13;5.35;;;;;;;-144.32;100.00;68061.97;10384158;23;20039;-82
2023/09/29 10:39:35;;;;;;;7.17;5.37;;;;;;;-144.32;100.00;68061.97;10366318;28;20058;-84
2023/09/29 10:44:52;;;;;;;6.07;4.57;;;;;;;-144.32;100.00;68061.97;10339055;28;20309;-84
2023/09/29 10:49:55;;;;;;;5.45;4.32;;;;;;;-144.32;100.00;68061.97;10328684;28;20298;-80
2023/09/29 10:54:58;;;;;;;7.22;4.70;;;;;;;-144.32;100.00;68061.97;10354753;28;20526;-83
2023/09/29 11:00:00;;;;;;;6.25;4.32;;;;;;;-144.32;100.00;68061.97;10302434;28;20034;-81
2023/09/29 11:05:06;;;;;;;6.27;4.80;;;;;;;-144.32;100.00;68061.97;10311888;28;20145;-81
2023/09/29 11:15:12;;;;;;;6.30;4.78;;;;;;;-144.32;100.00;68061.97;10289218;23;20616;-81
2023/09/29 11:20:16;;;;;;;6.03;4.38;;;;;;;-144.32;100.00;68061.97;10313287;23;20078;-87
2023/09/29 11:25:18;;;;;;;6.35;4.72;;;;;;;-144.32;100.00;68061.97;10270566;28;20042;-82
2023/09/29 11:30:24;;;;;;;5.28;4.70;;;;;;;-144.32;100.00;68061.97;10284683;28;20041;-85
2023/09/29 11:35:28;;;;;;;4.88;4.25;;;;;;;-144.32;100.00;68061.97;10280622;28;20085;-84
2023/09/29 11:40:29;;;;;;;7.07;4.65;;;;;;;-144.32;100.00;68061.97;10264459;28;20106;-83
2023/09/29 11:45:29;;;;;;;7.50;4.53;;;;;;;-144.32;100.00;68061.97;10253292;28;20515;-84
2023/09/29 11:50:37;;;;;;;4.72;4.20;;;;;;;-144.32;100.00;68061.97;10255823;28;20039;-83
2023/09/29 11:55:42;;;;;;;7.53;5.05;;;;;;;-144.32;100.00;68061.97;10265702;28;20680;-83
2023/09/29 12:00:42;;;;;;;;;;;;;;;-144.32;100.00;68061.97;10268889;28;20090;-83
2023/09/29 12:05:48;;;;;;;5.50;4.20;;;;;;;-144.32;100.00;68061.97;10305780;28;19914;-82
2023/09/29 12:10:49;;;;;;;5.53;4.10;;;;;;;-144.32;100.00;68061.97;10263587;28;20684;-83
2023/09/29 12:15:51;;;;;;;5.05;3.95;;;;;;;-144.32;100.00;68061.97;10272525;28;20035;-85
2023/09/29 12:20:53;;;;;;;4.85;3.92;;;;;;;-144.32;100.00;68061.97;10261226;28;20043;-85
2023/09/29 12:25:54;;;;;;;7.40;4.60;;;;;;;-144.32;100.00;68061.97;10279716;28;20039;-84
2023/09/29 12:30:56;;;;;;;5.17;3.53;;;;;;;-144.32;100.00;68061.97;10275484;28;20043;-82
2023/09/29 12:35:59;;;;;;;4.35;3.63;;;;;;;-144.32;100.00;68061.97;10277500;28;20042;-82
2023/09/29 12:41:00;;;;;;;;;;;;;;;-144.32;100.00;68061.97;10292036;28;20037;-81
2023/09/29 12:46:00;;;;;;;4.47;3.90;;;;;;;-144.32;100.00;68061.97;10299149;28;19985;-81
2023/09/29 12:51:01;;;;;;;4.37;3.83;;;;;;;-144.32;100.00;68061.97;10247336;28;20409;-84
2023/09/29 12:56:04;;;;;;;4.22;3.40;;;;;;;-144.32;100.00;68061.97;10281125;28;20051;-82
2023/09/29 13:01:07;;;;;;;4.80;3.25;;;;;;;-144.32;100.00;68061.97;10290123;28;20058;-84
2023/09/29 13:06:09;;;;;;;6.70;3.53;;;;;;;-144.32;100.00;68061.97;10306537;28;20059;-83
2023/09/29 13:11:17;;;;;;;5.93;3.42;;;;;;;-144.32;100.00;68061.97;10307180;28;20033;-82
2023/09/29 13:16:18;;;;;;;4.88;3.50;;;;;;;-144.32;100.00;68061.97;10250134;28;1141730;-82
2023/09/29 13:21:19;;;;;;;5.20;3.30;;;;;;;-144.32;100.00;68061.97;10299117;28;20042;-84
2023/09/29 13:26:19;;;;;;;5.30;3.23;;;;;;;-144.32;100.00;68061.97;10277832;28;20054;-82
2023/09/29 13:31:20;;;;;;;6.27;3.63;;;;;;;-144.32;100.00;68061.97;10296233;28;20038;-82
2023/09/29 13:36:23;;;;;;;4.97;3.40;;;;;;;-144.32;100.00;68061.97;10282658;28;20081;-82
2023/09/29 13:41:28;;;;;;;4.95;3.42;;;;;;;-144.32;100.00;68061.97;10309649;28;20067;-79
2023/09/29 13:46:28;;;;;;;7.43;3.30;;;;;;;-144.32;100.00;68061.97;10314993;28;20032;-83
2023/09/29 13:51:30;;;;;;;5.13;3.40;;;;;;;-144.32;100.00;68061.97;10311238;28;20057;-82
2023/09/29 13:56:31;;;;;;;4.30;2.97;;;;;;;-144.32;100.00;68061.97;10292848;28;20039;-82
2023/09/29 14:01:33;;;;;;;4.05;3.20;;;;;;;-144.32;100.00;68061.97;10293155;28;20631;-80
2023/09/29 14:06:34;;;;;;;3.83;3.45;;;;;;;-144.32;100.00;68061.97;10294800;28;20062;-83
2023/09/29 14:11:34;;;;;;;5.00;3.27;;;;;;;-144.32;100.00;68061.97;10307525;28;20486;-82
2023/09/29 14:16:35;;;;;;;4.13;3.57;;;;;;;-144.32;100.00;68061.97;10299920;28;20050;-83
2023/09/29 14:21:36;;;;;;;4.90;3.50;;;;;;;-144.32;100.00;68061.97;10290075;28;21087;-84
2023/09/29 14:26:39;;;;;;;4.97;3.30;;;;;;;-144.32;100.00;68061.97;10280102;28;20071;-81
2023/09/29 14:31:46;;;;;;;4.22;3.40;;;;;;;-144.32;100.00;68061.97;10317878;28;20106;-81
2023/09/29 14:36:50;;;;;;;3.83;3.40;;;;;;;-144.32;100.00;68061.97;10295628;28;20089;-82
2023/09/29 14:41:51;;;;;;;4.70;3.20;;;;;;;-144.32;100.00;68061.97;10245510;28;20047;-81
2023/09/29 14:46:51;;;;;;;6.67;3.50;;;;;;;-144.32;100.00;68061.97;10271528;28;20038;-83
2023/09/29 14:51:52;;;;;;;5.87;3.67;;;;;;;-144.32;100.00;68061.97;10293916;28;20079;-81
2023/09/29 14:56:52;;;;;;;6.90;3.43;;;;;;;-144.32;100.00;68061.97;10286484;28;20203;-81
2023/09/29 15:01:53;;;;;;;4.20;3.13;;;;;;;-144.32;100.00;68061.97;10298132;28;20047;-81
2023/09/29 15:06:54;;;;;;;3.77;3.30;;;;;;;-144.32;100.00;68061.97;10308896;28;20123;-83
2023/09/29 15:11:54;;;;;;;4.70;3.10;;;;;;;-144.32;100.00;68061.97;10268230;28;20039;-81
2023/09/29 15:16:54;;;;;;;3.47;3.13;;;;;;;-144.32;100.00;68061.97;10279829;28;20492;-83
2023/09/29 15:21:55;;;;;;;4.83;3.50;;;;;;;-144.32;100.00;68061.97;10264647;28;20046;-82
2023/09/29 15:26:56;;;;;;;4.93;3.37;;;;;;;-144.32;100.00;68061.97;10302131;28;20086;-81
2023/09/29 15:31:57;;;;;;;3.40;3.10;;;;;;;-144.32;100.00;68061.97;10287945;28;20065;-83
2023/09/29 15:36:57;;;;;;;4.10;3.25;;;;;;;-144.32;100.00;68061.97;10273344;28;20034;-82
2023/09/29 15:41:58;;;;;;;3.73;3.33;;;;;;;-144.32;100.00;68061.97;10281894;28;20050;-79
2023/09/29 15:47:00;;;;;;;5.47;3.50;;;;;;;-144.32;100.00;68061.97;10275757;28;20492;-82
2023/09/29 15:52:03;;;;;;;5.97;3.63;;;;;;;-144.32;100.00;68061.97;10280674;28;20127;-81
2023/09/29 15:57:08;;;;;;;5.53;3.50;;;;;;;-144.32;100.00;68061.97;10282994;28;20055;-85
2023/09/29 16:02:08;;;;;;;5.20;3.38;;;;;;;-144.32;100.00;68061.97;10286494;28;20152;-82
2023/09/29 16:07:09;;;;;;;3.87;3.30;;;;;;;-144.32;100.00;68061.97;10303972;28;20396;-80
2023/09/29 16:12:09;;;;;;;4.10;3.57;;;;;;;-144.32;100.00;68061.97;10311124;28;20054;-81
2023/09/29 16:17:11;;;;;;;5.17;3.30;;;;;;;-144.32;100.00;68061.97;10306715;28;20033;-80
2023/09/29 16:22:12;;;;;;;5.07;3.28;;;;;;;-144.32;100.00;68061.97;10292748;28;20228;-84
2023/09/29 16:27:14;;;;;;;4.47;3.08;;;;;;;-144.32;100.00;68061.97;10480833;23;20062;-80
2023/09/29 16:32:15;;;;;;;3.73;3.10;;;;;;;-144.32;100.00;68061.97;10347320;28;20074;-86
2023/09/29 16:37:15;;;;;;;4.20;3.17;;;;;;;-144.32;100.00;68061.97;10319496;28;20133;-79
2023/09/29 16:42:16;;;;;;;3.45;3.15;;;;;;;-144.32;100.00;68061.97;10311876;28;20053;-80
2023/09/29 16:47:18;;;;;;;3.47;2.90;;;;;;;-144.32;100.00;68061.97;10331827;28;20109;-83
2023/09/29 16:52:19;;;;;;;4.25;3.10;;;;;;;-144.32;100.00;68061.97;10334634;28;20045;-81
2023/09/29 16:57:21;;;;;;;3.65;3.30;;;;;;;-144.32;100.00;68061.97;10313840;28;20049;-82
2023/09/29 17:02:23;;;;;;;3.70;3.20;;;;;;;-144.32;100.00;68061.97;10312461;28;20050;-82
2023/09/29 17:07:24;;;;;;;3.33;2.90;;;;;;;-144.32;100.00;68061.97;10293259;28;20078;-81
2023/09/29 17:12:26;;;;;;;4.15;3.28;;;;;;;-144.32;100.00;68061.97;10325023;28;20554;-86
2023/09/29 17:17:27;;;;;;;5.30;3.38;;;;;;;-144.32;100.00;68061.97;10316900;28;20056;-82
2023/09/29 17:22:31;;;;;;;5.63;3.58;;;;;;;-144.32;100.00;68061.97;10300732;28;20049;-83
2023/09/29 17:27:31;;;;;;;6.57;3.72;;;;;;;-144.32;100.00;68061.97;10327001;28;20046;-82
2023/09/29 17:32:33;;;;;;;6.38;3.90;;;;;;;-144.32;100.00;68061.97;10313641;28;20046;-81
2023/09/29 17:37:35;;;;;;;6.63;4.18;;;;;;;-144.32;100.00;68061.97;10355540;28;20125;-82
2023/09/29 17:42:35;;;;;;;9.70;3.70;;;;;;;-144.32;100.00;68061.97;10336005;28;20137;-81
2023/09/29 17:47:35;;;;;;;6.90;4.00;;;;;;;-144.32;100.00;68061.97;10331601;28;20135;-84
2023/09/29 17:52:37;;;;;;;7.38;3.97;;;;;;;-144.32;100.00;68061.97;10307540;28;20072;-84
2023/09/29 17:57:37;;;;;;;6.87;4.10;;;;;;;-144.32;100.00;68061.97;10298890;28;20141;-82
2023/09/29 18:02:41;;;;;;;9.30;4.47;;;;;;;-144.32;100.00;68061.97;10322870;28;21549;-83
2023/09/29 18:07:42;;;;;;;9.23;4.43;;;;;;;-144.32;100.00;68061.97;10313196;28;20061;-82
2023/09/29 18:12:43;;;;;;;7.90;5.07;;;;;;;-144.32;100.00;68061.97;10296346;28;20125;-82
2023/09/29 18:17:44;;;;;;;8.90;5.43;;;;;;;-144.32;100.00;68061.97;10312690;28;20546;-82
2023/09/29 18:22:45;;;;;;;8.63;4.88;;;;;;;-144.32;100.00;68061.97;10314277;28;20043;-85
2023/09/29 18:27:49;;;;;;;8.98;4.75;;;;;;;-144.32;100.00;68061.97;10350524;28;20026;-80
2023/09/29 18:32:54;;;;;;;7.93;5.60;;;;;;;-144.32;100.00;68061.97;10361715;28;20062;-83
2023/09/29 18:37:58;;;;;;;9.25;5.45;;;;;;;-144.32;100.00;68061.97;10316486;28;20050;-82
2023/09/29 18:42:59;;;;;;;12.07;6.47;;;;;;;-144.32;100.00;68061.97;10333728;28;20038;-84
2023/09/29 18:48:00;;;;;;;11.50;7.00;;;;;;;-144.32;100.00;68061.97;10325962;28;20124;-80
2023/09/29 18:53:04;;;;;;;13.73;7.00;;;;;;;-144.32;100.00;68061.97;10300053;28;20059;-82
2023/09/29 18:58:04;;;;;;;15.30;7.22;;;;;;;-144.32;100.00;68061.97;10279105;28;20057;-79
2023/09/29 19:03:05;;;;;;;19.42;10.93;;;;;;;-144.32;100.00;68061.97;10319977;28;20731;-81
2023/09/29 19:08:05;;;;;;;18.00;8.80;;;;;;;-144.32;100.00;68061.97;10296593;28;20053;-82
2023/09/29 19:13:09;;;;;;;19.00;9.85;;;;;;;-144.32;100.00;68061.97;10320880;28;20114;-82
2023/09/29 19:18:10;;;;;;;22.33;10.70;;;;;;;-144.32;100.00;68061.97;10310419;28;20062;-81
2023/09/29 19:23:13;;;;;;;19.42;11.18;;;;;;;-144.32;100.00;68061.97;10337932;28;20463;-82
2023/09/29 19:28:15;;;;;;;27.95;11.90;;;;;;;-144.32;100.00;68061.97;10329980;28;20147;-82
2023/09/29 19:33:16;;;;;;;25.37;11.33;;;;;;;-144.32;100.00;68061.97;10332295;28;20617;-87
2023/09/29 19:38:17;;;;;;;23.70;11.65;;;;;;;-144.32;100.00;68061.97;10312792;28;20193;-81
2023/09/29 19:43:19;;;;;;;21.30;10.45;;;;;;;-144.32;100.00;68061.97;10305342;28;20187;-82
2023/09/29 19:48:22;;;;;;;24.15;11.60;;;;;;;-144.32;100.00;68061.97;10315410;28;20062;-82
2023/09/29 19:53:22;;;;;;;21.67;10.88;;;;;;;-144.32;100.00;68061.97;10308692;28;20054;-82
2023/09/29 19:58:23;;;;;;;21.85;10.75;;;;;;;-144.32;100.00;68061.97;10347421;28;20034;-80
2023/09/29 20:03:23;;;;;;;23.35;10.95;;;;;;;-144.32;100.00;68061.97;10345662;28;20114;-83
2023/09/29 20:08:27;;;;;;;25.52;11.93;;;;;;;-144.32;100.00;68061.97;10324774;28;20045;-83
2023/09/29 20:13:29;;;;;;;25.27;12.00;;;;;;;-144.32;100.00;68061.97;10335211;28;20565;-85
2023/09/29 20:18:30;;;;;;;26.33;11.73;;;;;;;-144.32;100.00;68061.97;10328423;28;20414;-84
2023/09/29 20:23:31;;;;;;;26.85;11.52;;;;;;;-144.32;100.00;68061.97;10343447;28;20061;-81
2023/09/29 20:28:33;;;;;;;26.48;11.95;;;;;;;-144.32;100.00;68061.97;10345377;28;20038;-82
2023/09/29 20:33:34;;;;;;;24.97;12.20;;;;;;;-144.32;100.00;68061.97;10337376;28;20046;-82
2023/09/29 20:38:34;;;;;;;25.83;12.25;;;;;;;-144.32;100.00;68061.97;10328812;28;20038;-81
2023/09/29 20:43:36;;;;;;;25.27;11.82;;;;;;;-144.32;100.00;68061.97;10351703;28;20041;-82
2023/09/29 20:48:37;;;;;;;26.00;12.90;;;;;;;-144.32;100.00;68061.97;10352563;28;20495;-82
2023/09/29 20:53:38;;;;;;;25.25;12.77;;;;;;;-144.32;100.00;68061.97;10338565;28;20050;-81
2023/09/29 20:58:40;;;;;;;27.77;12.65;;;;;;;-144.32;100.00;68061.97;10342902;28;20047;-82
2023/09/29 21:03:40;;;;;;;21.80;11.25;;;;;;;-144.32;100.00;68061.97;10327862;28;20780;-81
2023/09/29 21:08:43;;;;;;;25.63;12.15;;;;;;;-144.32;100.00;68061.97;10326202;28;20060;-81
2023/09/29 21:13:48;;;;;;;26.85;12.50;;;;;;;-144.32;100.00;68061.97;10276717;28;20057;-83
2023/09/29 21:18:53;;;;;;;26.63;12.43;;;;;;;-144.32;100.00;68061.97;10325117;28;20042;-83
2023/09/29 21:23:55;;;;;;;27.27;13.43;;;;;;;-144.32;100.00;68061.97;10319273;28;20100;-80
2023/09/29 21:28:56;;;;;;;25.45;12.23;;;;;;;-144.32;100.00;68061.97;10302658;28;20123;-81
2023/09/29 21:33:57;;;;;;;27.33;12.25;;;;;;;-144.32;100.00;68061.97;10325846;28;20061;-81
2023/09/29 21:38:58;;;;;;;21.80;10.63;;;;;;;-144.32;100.00;68061.97;10313651;28;20046;-82
2023/09/29 21:43:59;;;;;;;23.77;10.82;;;;;;;-144.32;100.00;68061.97;10326016;28;20954;-84
2023/09/29 21:48:59;;;;;;;25.88;10.88;;;;;;;-144.32;100.00;68061.97;10307848;28;20058;-82
2023/09/29 21:54:03;;;;;;;22.40;10.02;;;;;;;-144.32;100.00;68061.97;10311654;28;22053;-84
2023/09/29 21:59:04;;;;;;;22.15;9.82;;;;;;;-144.32;100.00;68061.97;10301795;28;20053;-80
2023/09/29 22:04:04;;;;;;;21.80;8.65;;;;;;;-144.32;100.00;68061.97;10323979;28;20053;-81
2023/09/29 22:09:05;;;;;;;18.73;8.65;;;;;;;-144.32;100.00;68061.97;10309363;28;20046;-83
2023/09/29 22:14:05;;;;;;;18.00;8.02;;;;;;;-144.32;100.00;68061.97;10323334;28;20046;-83
2023/09/29 22:19:07;;;;;;;18.05;7.93;;;;;;;-144.32;100.00;68061.97;10341177;28;20492;-82
2023/09/29 22:24:08;;;;;;;20.65;7.80;;;;;;;-144.32;100.00;68061.97;10318621;28;20047;-81
2023/09/29 22:29:08;;;;;;;17.40;6.97;;;;;;;-144.32;100.00;68061.97;10322456;28;20042;-82
2023/09/29 22:34:09;;;;;;;15.95;7.78;;;;;;;-144.32;100.00;68061.97;10366158;28;20140;-81